createdAt,value
2023-01-30T00:01:32.335Z,9.90
2023-01-30T00:04:02.150Z,9.84
2023-01-30T00:06:30.677Z,9.99
2023-01-30T00:08:59.150Z,9.95
2023-01-30T00:11:30.001Z,9.98
2023-01-30T00:13:58.508Z,10.08
2023-01-30T00:16:27.096Z,9.96
2023-01-30T00:18:55.999Z,9.98
2023-01-30T00:21:25.743Z,10.00
2023-01-30T00:23:54.077Z,9.91
2023-01-30T00:26:22.470Z,9.78
2023-01-30T00:28:50.853Z,9.67
2023-01-30T00:31:19.620Z,9.85
2023-01-30T00:33:48.077Z,9.98
2023-01-30T00:36:16.541Z,10.00
2023-01-30T00:38:46.353Z,10.02
2023-01-30T00:41:15.370Z,10.00
2023-01-30T00:44:01.293Z,9.94
2023-01-30T00:46:59.263Z,9.86
2023-01-30T00:49:27.904Z,9.91
2023-01-30T00:51:56.401Z,9.88
2023-01-30T00:54:26.263Z,9.87
2023-01-30T00:56:54.704Z,9.93
2023-01-30T00:59:27.037Z,9.85
2023-01-30T01:01:55.892Z,9.83
2023-01-30T01:04:24.445Z,9.87
2023-01-30T01:06:52.826Z,9.91
2023-01-30T01:09:21.514Z,9.91
2023-01-30T01:11:51.229Z,9.86
2023-01-30T01:14:19.719Z,9.79
2023-01-30T01:16:48.530Z,9.77
2023-01-30T01:19:16.930Z,9.42
2023-01-30T01:21:45.245Z,9.98
2023-01-30T01:24:16.259Z,9.88
2023-01-30T01:26:45.059Z,9.95
2023-01-30T01:29:16.620Z,9.92
2023-01-30T01:31:45.516Z,9.91
2023-01-30T01:34:14.442Z,9.88
2023-01-30T01:36:54.620Z,9.85
2023-01-30T01:39:23.827Z,9.60
2023-01-30T01:41:51.636Z,9.78
2023-01-30T01:44:21.498Z,9.87
2023-01-30T01:46:53.093Z,9.90
2023-01-30T01:49:25.664Z,9.87
2023-01-30T01:51:59.488Z,9.92
2023-01-30T01:54:35.377Z,10.01
2023-01-30T01:57:08.137Z,9.92
2023-01-30T01:59:44.225Z,9.96
2023-01-30T02:02:15.982Z,9.97
2023-01-30T02:05:05.163Z,10.00
2023-01-30T02:07:39.885Z,9.89
2023-01-30T02:10:10.998Z,9.94
2023-01-30T02:12:40.539Z,10.00
2023-01-30T02:15:12.798Z,9.89
2023-01-30T02:17:41.322Z,9.94
2023-01-30T02:20:24.724Z,9.76
2023-01-30T02:23:25.769Z,10.03
2023-01-30T02:26:32.670Z,10.04
2023-01-30T02:29:28.817Z,10.00
2023-01-30T02:32:05.030Z,10.03
2023-01-30T02:34:48.391Z,10.06
2023-01-30T02:37:30.980Z,10.06
2023-01-30T02:40:18.690Z,9.92
2023-01-30T02:42:58.791Z,9.87
2023-01-30T02:45:35.344Z,9.94
2023-01-30T02:48:07.408Z,9.98
2023-01-30T02:50:42.035Z,9.96
2023-01-30T02:53:11.885Z,9.89
2023-01-30T02:55:43.335Z,9.91
2023-01-30T02:58:13.493Z,9.92
2023-01-30T03:01:21.917Z,9.89
2023-01-30T03:04:09.512Z,9.64
2023-01-30T03:07:04.062Z,9.87
2023-01-30T03:09:44.562Z,9.89
2023-01-30T03:12:19.990Z,9.85
2023-01-30T03:14:52.892Z,9.82
2023-01-30T03:17:23.714Z,9.83
2023-01-30T03:19:56.284Z,9.86
2023-01-30T03:22:24.646Z,9.81
2023-01-30T03:24:54.817Z,9.78
2023-01-30T03:27:23.933Z,9.85
2023-01-30T03:29:52.246Z,9.65
2023-01-30T03:32:20.506Z,9.77
2023-01-30T03:34:48.901Z,9.85
2023-01-30T03:37:18.699Z,9.80
2023-01-30T03:39:47.227Z,9.81
2023-01-30T03:42:16.899Z,9.61
2023-01-30T03:44:45.193Z,9.75
2023-01-30T03:47:14.857Z,9.78
2023-01-30T03:49:43.410Z,9.70
2023-01-30T03:52:11.694Z,9.68
2023-01-30T03:54:41.294Z,9.65
2023-01-30T03:57:09.963Z,9.56
2023-01-30T03:59:38.337Z,9.73
2023-01-30T04:02:10.185Z,9.68
2023-01-30T04:04:38.721Z,9.65
2023-01-30T04:07:09.731Z,9.71
2023-01-30T04:09:40.772Z,9.64
2023-01-30T04:12:09.421Z,9.40
2023-01-30T04:14:43.863Z,9.59
2023-01-30T04:17:40.780Z,9.54
2023-01-30T04:20:19.588Z,9.44
2023-01-30T04:22:52.568Z,9.35
2023-01-30T04:25:23.047Z,9.17
2023-01-30T04:27:51.824Z,9.01
2023-01-30T04:30:23.940Z,9.19
2023-01-30T04:32:56.687Z,9.19
2023-01-30T04:35:25.103Z,9.20
2023-01-30T04:37:53.349Z,9.21
2023-01-30T04:40:23.563Z,9.20
2023-01-30T04:42:51.927Z,9.10
2023-01-30T04:45:58.582Z,9.23
2023-01-30T04:48:27.908Z,9.38
2023-01-30T04:50:58.620Z,9.40
2023-01-30T04:53:27.496Z,9.48
2023-01-30T04:55:57.179Z,9.49
2023-01-30T04:58:25.535Z,9.41
2023-01-30T05:00:54.022Z,9.41
2023-01-30T05:03:22.339Z,9.39
2023-01-30T05:05:50.558Z,9.26
2023-01-30T05:08:18.845Z,9.23
2023-01-30T05:10:47.066Z,9.11
2023-01-30T05:13:16.764Z,9.24
2023-01-30T05:15:46.732Z,9.12
2023-01-30T05:18:15.132Z,9.07
2023-01-30T05:20:43.406Z,9.08
2023-01-30T05:23:11.759Z,9.09
2023-01-30T05:25:40.036Z,8.94
2023-01-30T05:28:08.520Z,9.03
2023-01-30T05:30:38.545Z,8.94
2023-01-30T05:33:06.900Z,8.95
2023-01-30T05:35:35.102Z,8.88
2023-01-30T05:38:03.579Z,8.94
2023-01-30T05:40:31.870Z,8.98
2023-01-30T05:43:00.116Z,8.88
2023-01-30T05:45:28.393Z,8.91
2023-01-30T05:48:01.250Z,8.91
2023-01-30T05:50:30.213Z,8.83
2023-01-30T05:52:59.263Z,8.74
2023-01-30T05:55:27.603Z,8.76
2023-01-30T05:57:55.840Z,8.69
2023-01-30T06:00:24.341Z,8.61
2023-01-30T06:02:52.642Z,8.73
2023-01-30T06:05:22.290Z,8.66
2023-01-30T06:07:50.479Z,8.73
2023-01-30T06:10:19.312Z,8.64
2023-01-30T06:12:47.547Z,8.60
2023-01-30T06:15:16.547Z,8.57
2023-01-30T06:17:45.324Z,8.48
2023-01-30T06:20:14.195Z,8.54
2023-01-30T06:22:43.846Z,8.54
2023-01-30T06:25:12.740Z,8.57
2023-01-30T06:27:41.076Z,8.59
2023-01-30T06:30:11.249Z,8.45
2023-01-30T06:32:39.668Z,8.51
2023-01-30T06:35:09.363Z,8.04
2023-01-30T06:37:37.602Z,8.48
2023-01-30T06:40:08.809Z,8.40
2023-01-30T06:42:37.037Z,8.34
2023-01-30T06:45:06.515Z,8.33
2023-01-30T06:47:34.791Z,8.40
2023-01-30T06:50:03.001Z,8.32
2023-01-30T06:52:31.252Z,8.35
2023-01-30T06:54:59.538Z,8.31
2023-01-30T06:57:29.316Z,8.35
2023-01-30T06:59:57.632Z,8.34
2023-01-30T07:02:25.884Z,8.35
2023-01-30T07:04:54.153Z,8.38
2023-01-30T07:07:22.385Z,8.28
2023-01-30T07:10:05.825Z,8.32
2023-01-30T07:12:37.288Z,8.32
2023-01-30T07:15:07.632Z,8.33
2023-01-30T07:17:35.973Z,8.04
2023-01-30T07:20:04.624Z,8.31
2023-01-30T07:22:32.886Z,8.32
2023-01-30T07:25:01.141Z,8.24
2023-01-30T07:27:29.396Z,8.31
2023-01-30T07:29:59.014Z,8.35
2023-01-30T07:32:27.398Z,8.30
2023-01-30T07:34:55.711Z,8.36
2023-01-30T07:37:24.049Z,8.37
2023-01-30T07:39:52.313Z,8.38
2023-01-30T07:42:20.519Z,8.41
2023-01-30T07:44:48.794Z,8.35
2023-01-30T07:47:20.090Z,8.44
2023-01-30T07:49:48.441Z,8.41
2023-01-30T07:52:16.951Z,8.40
2023-01-30T07:54:45.325Z,8.49
2023-01-30T07:57:13.795Z,8.57
2023-01-30T07:59:42.916Z,8.51
2023-01-30T08:02:12.299Z,8.62
2023-01-30T08:04:42.304Z,8.75
2023-01-30T08:07:10.681Z,8.65
2023-01-30T08:09:39.037Z,8.81
2023-01-30T08:12:07.770Z,8.86
2023-01-30T08:14:36.080Z,8.93
2023-01-30T08:17:04.412Z,9.06
2023-01-30T08:19:32.684Z,9.23
2023-01-30T08:22:02.333Z,9.30
2023-01-30T08:24:30.574Z,9.26
2023-01-30T08:27:00.409Z,8.68
2023-01-30T08:29:28.768Z,9.29
2023-01-30T08:31:59.072Z,9.49
2023-01-30T08:34:27.888Z,9.46
2023-01-30T08:36:56.131Z,9.49
2023-01-30T08:39:25.759Z,9.53
2023-01-30T08:41:54.147Z,9.61
2023-01-30T08:44:22.497Z,9.53
2023-01-30T08:46:50.719Z,9.57
2023-01-30T08:49:19.267Z,9.66
2023-01-30T08:51:47.514Z,9.64
2023-01-30T08:54:15.876Z,9.65
2023-01-30T08:56:45.515Z,9.57
2023-01-30T08:59:14.019Z,9.37
2023-01-30T09:01:42.330Z,9.28
2023-01-30T09:04:10.952Z,9.29
2023-01-30T09:06:39.203Z,9.40
2023-01-30T09:09:07.502Z,9.18
2023-01-30T09:11:35.709Z,9.37
2023-01-30T09:14:05.437Z,9.48
2023-01-30T09:16:33.757Z,9.56
2023-01-30T09:19:02.053Z,9.48
2023-01-30T09:21:32.052Z,9.53
2023-01-30T09:24:00.423Z,9.74
2023-01-30T09:26:28.714Z,9.78
2023-01-30T09:28:57.160Z,9.94
2023-01-30T09:31:26.970Z,10.00
2023-01-30T09:33:55.264Z,10.19
2023-01-30T09:36:23.627Z,10.09
2023-01-30T09:38:51.908Z,9.93
2023-01-30T09:41:54.899Z,9.72
2023-01-30T09:44:58.973Z,9.54
2023-01-30T09:47:41.460Z,9.40
2023-01-30T09:50:45.152Z,9.57
2023-01-30T09:53:21.821Z,9.46
2023-01-30T09:55:50.476Z,9.22
2023-01-30T09:58:22.642Z,9.21
2023-01-30T10:00:55.875Z,9.25
2023-01-30T10:03:32.531Z,9.42
2023-01-30T10:06:07.363Z,9.66
2023-01-30T10:08:50.065Z,9.51
2023-01-30T10:11:35.040Z,9.44
2023-01-30T10:14:51.494Z,9.35
2023-01-30T10:17:36.076Z,9.41
2023-01-30T10:20:39.558Z,9.34
2023-01-30T10:23:44.868Z,9.52
2023-01-30T10:26:16.529Z,9.24
2023-01-30T10:29:06.163Z,9.23
2023-01-30T10:31:45.109Z,9.18
2023-01-30T10:34:19.468Z,9.19
2023-01-30T10:36:55.894Z,9.27
2023-01-30T10:39:30.999Z,9.27
2023-01-30T10:42:10.921Z,9.25
2023-01-30T10:44:42.655Z,9.18
2023-01-30T10:47:47.039Z,9.08
2023-01-30T10:50:20.890Z,9.15
2023-01-30T10:52:58.776Z,9.06
2023-01-30T10:55:38.413Z,9.14
2023-01-30T10:58:19.032Z,9.22
2023-01-30T11:00:57.065Z,9.25
2023-01-30T11:03:36.841Z,9.51
2023-01-30T11:06:09.695Z,9.51
2023-01-30T11:08:39.603Z,9.56
2023-01-30T11:11:27.738Z,9.59
2023-01-30T11:14:07.664Z,9.76
2023-01-30T11:16:45.369Z,9.89
2023-01-30T11:19:20.905Z,9.58
2023-01-30T11:21:52.634Z,9.74
2023-01-30T11:24:25.626Z,9.24
2023-01-30T11:26:54.064Z,9.52
2023-01-30T11:29:29.647Z,9.35
2023-01-30T11:32:02.887Z,9.41
2023-01-30T11:34:31.722Z,9.50
2023-01-30T11:37:16.171Z,9.41
2023-01-30T11:39:53.673Z,9.33
2023-01-30T11:42:29.518Z,9.39
2023-01-30T11:45:15.966Z,9.41
2023-01-30T11:48:04.617Z,9.42
2023-01-30T11:50:43.853Z,9.21
2023-01-30T11:53:30.298Z,9.22
2023-01-30T11:56:08.522Z,9.16
2023-01-30T11:58:40.972Z,9.29
2023-01-30T12:01:12.034Z,9.59
2023-01-30T12:03:49.650Z,9.79
2023-01-30T12:06:32.308Z,9.94
2023-01-30T12:09:01.409Z,10.19
2023-01-30T12:11:45.183Z,10.39
2023-01-30T12:14:28.140Z,10.25
2023-01-30T12:17:06.789Z,10.24
2023-01-30T12:19:50.456Z,10.22
2023-01-30T12:22:27.692Z,9.98
2023-01-30T12:25:06.110Z,10.09
2023-01-30T12:27:53.596Z,10.20
2023-01-30T12:30:34.828Z,9.99
2023-01-30T12:33:05.570Z,10.06
2023-01-30T12:35:43.312Z,9.86
2023-01-30T12:38:26.300Z,9.73
2023-01-30T12:41:14.830Z,9.94
2023-01-30T12:44:00.037Z,9.87
2023-01-30T12:46:55.904Z,10.01
2023-01-30T12:49:54.437Z,9.90
2023-01-30T12:52:45.641Z,9.68
2023-01-30T12:55:33.507Z,9.76
2023-01-30T12:58:11.402Z,9.72
2023-01-30T13:00:57.924Z,9.83
2023-01-30T13:03:37.315Z,9.67
2023-01-30T13:06:24.249Z,9.98
2023-01-30T13:09:09.480Z,10.00
2023-01-30T13:11:54.338Z,9.98
2023-01-30T13:14:30.327Z,10.10
2023-01-30T13:17:35.501Z,10.24
2023-01-30T13:20:18.197Z,10.27
2023-01-30T13:22:55.557Z,9.96
2023-01-30T13:25:33.859Z,10.03
2023-01-30T13:28:09.708Z,10.17
2023-01-30T13:30:38.168Z,10.17
2023-01-30T13:33:14.041Z,10.04
2023-01-30T13:35:48.095Z,10.16
2023-01-30T13:38:22.560Z,10.26
2023-01-30T13:40:55.254Z,10.02
2023-01-30T13:43:28.311Z,10.25
2023-01-30T13:46:02.479Z,10.24
2023-01-30T13:48:47.239Z,10.28
2023-01-30T13:51:46.022Z,10.25
2023-01-30T13:54:40.762Z,10.24
2023-01-30T13:57:22.394Z,10.14
2023-01-30T14:00:20.786Z,9.98
2023-01-30T14:03:25.148Z,9.97
2023-01-30T14:06:33.924Z,10.07
2023-01-30T14:09:18.817Z,10.20
2023-01-30T14:11:53.139Z,10.15
2023-01-30T14:14:28.175Z,10.15
2023-01-30T14:16:59.629Z,10.23
2023-01-30T14:19:36.290Z,10.08
2023-01-30T14:22:23.300Z,10.09
2023-01-30T14:25:47.163Z,10.19
2023-01-30T14:28:49.409Z,10.01
2023-01-30T14:31:51.634Z,10.15
2023-01-30T14:35:23.173Z,10.28
2023-01-30T14:38:11.327Z,9.93
2023-01-30T14:40:45.407Z,9.59
2023-01-30T14:43:53.277Z,9.92
2023-01-30T14:46:54.458Z,9.96
2023-01-30T14:49:31.509Z,10.22
2023-01-30T14:52:00.594Z,10.14
2023-01-30T14:54:42.320Z,9.53
2023-01-30T14:57:24.774Z,10.05
2023-01-30T15:02:53.944Z,9.84
2023-01-30T15:05:31.722Z,9.93
2023-01-30T15:08:08.063Z,10.01
2023-01-30T15:10:59.325Z,10.03
2023-01-30T15:13:55.517Z,10.16
2023-01-30T15:16:50.202Z,10.01
2023-01-30T15:20:00.610Z,9.89
2023-01-30T15:22:38.391Z,9.80
2023-01-30T15:25:31.717Z,9.85
2023-01-30T15:28:19.253Z,9.73
2023-01-30T15:31:01.695Z,9.88
2023-01-30T15:33:32.124Z,9.67
2023-01-30T15:36:01.229Z,9.58
2023-01-30T15:38:32.986Z,9.70
2023-01-30T15:41:04.670Z,9.63
2023-01-30T15:44:20.036Z,9.72
2023-01-30T15:46:57.767Z,9.50
2023-01-30T15:49:51.317Z,9.61
2023-01-30T15:52:23.339Z,9.58
2023-01-30T15:54:53.761Z,9.43
2023-01-30T15:57:26.975Z,9.59
2023-01-30T15:59:58.869Z,9.60
2023-01-30T16:02:32.172Z,9.54
2023-01-30T16:05:16.682Z,9.69
2023-01-30T16:07:46.964Z,9.60
2023-01-30T16:10:18.812Z,9.63
2023-01-30T16:12:48.553Z,8.32
2023-01-30T16:15:27.487Z,9.35
2023-01-30T16:18:06.324Z,9.31
2023-01-30T16:21:00.264Z,9.30
2023-01-30T16:23:33.245Z,8.88
2023-01-30T16:26:03.266Z,9.25
2023-01-30T16:28:33.333Z,9.19
2023-01-30T16:31:06.411Z,9.33
2023-01-30T16:33:37.071Z,9.50
2023-01-30T16:36:07.816Z,9.36
2023-01-30T16:38:45.320Z,9.22
2023-01-30T16:41:33.297Z,9.42
2023-01-30T16:44:21.342Z,9.46
2023-01-30T16:46:56.400Z,9.22
2023-01-30T16:49:39.103Z,9.21
2023-01-30T16:52:19.370Z,9.35
2023-01-30T16:54:51.541Z,9.40
2023-01-30T16:57:36.383Z,9.19
2023-01-30T17:00:10.071Z,8.49
2023-01-30T17:02:43.372Z,9.56
2023-01-30T17:05:20.134Z,9.56
2023-01-30T17:07:50.244Z,9.16
2023-01-30T17:10:55.513Z,9.34
2023-01-30T17:13:36.563Z,9.17
2023-01-30T17:16:35.349Z,9.37
2023-01-30T17:19:05.088Z,9.17
2023-01-30T17:21:39.347Z,9.30
2023-01-30T17:24:08.297Z,9.13
2023-01-30T17:26:40.696Z,9.28
2023-01-30T17:29:23.769Z,9.25
2023-01-30T17:31:58.605Z,9.22
2023-01-30T17:34:28.993Z,9.21
2023-01-30T17:36:57.283Z,9.32
2023-01-30T17:39:26.818Z,9.20
2023-01-30T17:41:55.180Z,9.21
2023-01-30T17:44:23.439Z,9.35
2023-01-30T17:46:51.952Z,9.35
2023-01-30T17:49:23.427Z,9.41
2023-01-30T17:51:53.905Z,9.32
2023-01-30T17:54:22.738Z,9.37
2023-01-30T17:56:55.675Z,9.25
2023-01-30T17:59:24.318Z,9.25
2023-01-30T18:01:54.331Z,9.34
2023-01-30T18:04:23.205Z,9.35
2023-01-30T18:07:02.188Z,9.28
2023-01-30T18:09:31.010Z,9.34
2023-01-30T18:11:59.527Z,9.42
2023-01-30T18:14:27.904Z,9.12
2023-01-30T18:17:00.416Z,9.32
2023-01-30T18:19:31.497Z,9.35
2023-01-30T18:22:01.395Z,9.20
2023-01-30T18:24:29.750Z,9.24
2023-01-30T18:26:59.142Z,9.30
2023-01-30T18:29:29.413Z,9.28
2023-01-30T18:32:03.541Z,9.30
2023-01-30T18:34:32.065Z,9.27
2023-01-30T18:37:01.845Z,9.08
2023-01-30T18:39:32.012Z,9.07
2023-01-30T18:42:02.049Z,9.23
2023-01-30T18:44:30.448Z,9.06
2023-01-30T18:46:59.303Z,9.03
2023-01-30T18:49:27.737Z,8.98
2023-01-30T18:51:56.005Z,9.09
2023-01-30T18:54:25.818Z,9.11
2023-01-30T18:56:54.120Z,9.08
2023-01-30T18:59:22.961Z,9.02
2023-01-30T19:01:51.344Z,9.06
2023-01-30T19:04:19.648Z,8.96
2023-01-30T19:06:48.117Z,9.03
2023-01-30T19:09:19.070Z,8.70
2023-01-30T19:12:06.556Z,8.92
2023-01-30T19:14:34.955Z,9.23
2023-01-30T19:17:03.286Z,9.05
2023-01-30T19:19:32.525Z,9.01
2023-01-30T19:22:00.915Z,8.99
2023-01-30T19:24:29.397Z,8.94
2023-01-30T19:26:59.549Z,9.13
2023-01-30T19:29:27.953Z,8.98
2023-01-30T19:31:56.334Z,8.94
2023-01-30T19:34:24.914Z,8.94
2023-01-30T19:36:53.219Z,9.01
2023-01-30T19:39:21.841Z,9.07
2023-01-30T19:41:50.618Z,9.02
2023-01-30T19:44:20.271Z,9.00
2023-01-30T19:46:49.311Z,8.91
2023-01-30T19:49:17.980Z,8.89
2023-01-30T19:51:46.290Z,8.88
2023-01-30T19:54:14.600Z,8.80
2023-01-30T19:56:47.623Z,8.81
2023-01-30T19:59:16.951Z,8.77
2023-01-30T20:01:47.023Z,8.84
2023-01-30T20:04:15.678Z,8.89
2023-01-30T20:06:45.971Z,8.82
2023-01-30T20:09:16.244Z,8.91
2023-01-30T20:11:44.924Z,8.81
2023-01-30T20:14:13.517Z,8.89
2023-01-30T20:16:42.238Z,8.83
2023-01-30T20:19:16.097Z,8.17
2023-01-30T20:21:45.716Z,8.84
2023-01-30T20:24:15.141Z,8.83
2023-01-30T20:26:47.140Z,8.72
2023-01-30T20:29:18.215Z,8.61
2023-01-30T20:31:46.624Z,8.86
2023-01-30T20:34:16.575Z,8.67
2023-01-30T20:36:45.039Z,8.59
2023-01-30T20:39:14.932Z,8.62
2023-01-30T20:41:43.625Z,8.64
2023-01-30T20:44:14.782Z,8.60
2023-01-30T20:46:45.840Z,8.64
2023-01-30T20:49:17.867Z,8.59
2023-01-30T20:51:47.279Z,8.55
2023-01-30T20:54:16.574Z,8.45
2023-01-30T20:56:47.451Z,8.52
2023-01-30T20:59:18.302Z,8.69
2023-01-30T21:01:47.550Z,8.78
2023-01-30T21:04:19.084Z,8.69
2023-01-30T21:06:47.822Z,8.68
2023-01-30T21:09:18.650Z,8.66
2023-01-30T21:11:47.614Z,8.55
2023-01-30T21:14:17.481Z,8.69
2023-01-30T21:16:46.309Z,8.68
2023-01-30T21:19:18.259Z,8.88
2023-01-30T21:21:51.514Z,8.89
2023-01-30T21:24:23.892Z,8.69
2023-01-30T21:26:52.962Z,8.69
2023-01-30T21:29:25.044Z,8.75
2023-01-30T21:31:53.680Z,8.72
2023-01-30T21:34:23.976Z,8.60
2023-01-30T21:37:06.525Z,8.56
2023-01-30T21:39:52.376Z,8.62
2023-01-30T21:42:39.227Z,8.60
2023-01-30T21:45:09.151Z,8.76
2023-01-30T21:47:37.538Z,8.71
2023-01-30T21:50:08.712Z,8.67
2023-01-30T21:52:37.052Z,8.85
2023-01-30T21:55:06.565Z,8.92
2023-01-30T21:57:35.179Z,8.78
2023-01-30T22:00:04.161Z,8.76
2023-01-30T22:02:33.468Z,8.77
2023-01-30T22:05:01.878Z,8.89
2023-01-30T22:07:32.345Z,8.89
2023-01-30T22:10:01.548Z,9.04
2023-01-30T22:12:31.628Z,9.09
2023-01-30T22:15:00.020Z,9.00
2023-01-30T22:17:28.795Z,9.12
2023-01-30T22:19:57.185Z,9.19
2023-01-30T22:22:27.283Z,9.17
2023-01-30T22:24:57.024Z,9.19
2023-01-30T22:27:25.302Z,9.19
2023-01-30T22:29:54.042Z,9.27
2023-01-30T22:32:22.651Z,9.34
2023-01-30T22:34:54.645Z,9.35
2023-01-30T22:37:23.048Z,9.14
2023-01-30T22:39:51.302Z,9.03
2023-01-30T22:42:21.065Z,8.99
2023-01-30T22:44:49.818Z,8.99
2023-01-30T22:47:18.138Z,8.97
2023-01-30T22:49:46.635Z,8.97
2023-01-30T22:52:15.248Z,8.87
2023-01-30T22:54:43.555Z,8.79
2023-01-30T22:57:11.850Z,8.66
2023-01-30T22:59:41.516Z,8.53
2023-01-30T23:02:10.324Z,8.48
2023-01-30T23:04:39.113Z,8.56
2023-01-30T23:07:07.530Z,8.48
2023-01-30T23:09:35.946Z,8.41
2023-01-30T23:12:21.988Z,8.40
2023-01-30T23:14:51.957Z,8.38
2023-01-30T23:17:37.963Z,8.39
2023-01-30T23:20:07.735Z,8.33
2023-01-30T23:22:36.036Z,8.33
2023-01-30T23:25:05.545Z,8.45
2023-01-30T23:27:33.788Z,8.42
2023-01-30T23:30:03.613Z,8.38
2023-01-30T23:32:31.996Z,8.48
2023-01-30T23:35:00.319Z,8.48
2023-01-30T23:37:42.506Z,8.47
2023-01-30T23:40:12.627Z,8.49
2023-01-30T23:42:41.015Z,8.54
2023-01-30T23:45:12.074Z,8.56
2023-01-30T23:47:40.410Z,8.58
2023-01-30T23:50:09.621Z,8.58
2023-01-30T23:52:37.906Z,8.47
2023-01-30T23:55:07.658Z,8.42
2023-01-30T23:57:36.285Z,8.47
